sensor_id;sensor_type;location;lat;lon;timestamp;P1;durP1;ratioP1;P2;durP2;ratioP2
16994;SDS011;8614;48.522;9.206;2022-10-17T00:00:15;8.80;;;8.10;;
16994;SDS011;8614;48.522;9.206;2022-10-17T00:02:43;9.03;;;8.33;;
16994;SDS011;8614;48.522;9.206;2022-10-17T00:05:11;9.23;;;8.53;;
16994;SDS011;8614;48.522;9.206;2022-10-17T00:07:38;8.30;;;7.57;;
16994;SDS011;8614;48.522;9.206;2022-10-17T00:10:05;8.50;;;7.80;;
16994;SDS011;8614;48.522;9.206;2022-10-17T00:12:33;8.33;;;7.63;;
16994;SDS011;8614;48.522;9.206;2022-10-17T00:15:01;8.10;;;7.50;;
16994;SDS011;8614;48.522;9.206;2022-10-17T00:17:29;8.57;;;7.97;;
16994;SDS011;8614;48.522;9.206;2022-10-17T00:19:58;9.50;;;8.70;;
16994;SDS011;8614;48.522;9.206;2022-10-17T00:22:26;10.00;;;9.30;;
16994;SDS011;8614;48.522;9.206;2022-10-17T00:24:53;9.13;;;8.43;;
16994;SDS011;8614;48.522;9.206;2022-10-17T00:27:20;9.37;;;8.57;;
16994;SDS011;8614;48.522;9.206;2022-10-17T00:29:47;9.63;;;8.87;;
16994;SDS011;8614;48.522;9.206;2022-10-17T00:32:14;9.17;;;8.47;;
16994;SDS011;8614;48.522;9.206;2022-10-17T00:34:41;8.80;;;8.20;;
16994;SDS011;8614;48.522;9.206;2022-10-17T00:37:09;10.80;;;10.00;;
16994;SDS011;8614;48.522;9.206;2022-10-17T00:39:36;11.33;;;10.57;;
16994;SDS011;8614;48.522;9.206;2022-10-17T00:42:03;12.60;;;11.70;;
16994;SDS011;8614;48.522;9.206;2022-10-17T00:47:34;11.93;;;11.13;;
16994;SDS011;8614;48.522;9.206;2022-10-17T00:50:02;10.20;;;9.50;;
16994;SDS011;8614;48.522;9.206;2022-10-17T00:52:31;9.63;;;8.93;;
16994;SDS011;8614;48.522;9.206;2022-10-17T00:54:59;10.73;;;9.83;;
16994;SDS011;8614;48.522;9.206;2022-10-17T00:57:33;11.87;;;10.97;;
16994;SDS011;8614;48.522;9.206;2022-10-17T01:00:02;11.03;;;10.33;;
16994;SDS011;8614;48.522;9.206;2022-10-17T01:02:33;10.93;;;10.13;;
16994;SDS011;8614;48.522;9.206;2022-10-17T01:05:00;10.27;;;9.17;;
16994;SDS011;8614;48.522;9.206;2022-10-17T01:07:27;9.30;;;8.57;;
16994;SDS011;8614;48.522;9.206;2022-10-17T01:09:56;10.73;;;10.03;;
16994;SDS011;8614;48.522;9.206;2022-10-17T01:12:25;12.60;;;11.60;;
16994;SDS011;8614;48.522;9.206;2022-10-17T01:14:58;12.17;;;11.37;;
16994;SDS011;8614;48.522;9.206;2022-10-17T01:17:39;9.10;;;8.30;;
16994;SDS011;8614;48.522;9.206;2022-10-17T01:20:28;5.73;;;5.23;;
16994;SDS011;8614;48.522;9.206;2022-10-17T01:23:23;5.80;;;4.67;;
16994;SDS011;8614;48.522;9.206;2022-10-17T01:26:06;4.93;;;4.43;;
16994;SDS011;8614;48.522;9.206;2022-10-17T01:31:38;7.67;;;4.60;;
16994;SDS011;8614;48.522;9.206;2022-10-17T01:34:12;5.37;;;4.60;;
16994;SDS011;8614;48.522;9.206;2022-10-17T01:36:45;6.77;;;6.20;;
16994;SDS011;8614;48.522;9.206;2022-10-17T01:39:18;8.33;;;5.50;;
16994;SDS011;8614;48.522;9.206;2022-10-17T01:41:50;8.03;;;7.30;;
16994;SDS011;8614;48.522;9.206;2022-10-17T01:44:23;6.10;;;5.53;;
16994;SDS011;8614;48.522;9.206;2022-10-17T01:46:57;10.10;;;9.30;;
16994;SDS011;8614;48.522;9.206;2022-10-17T01:49:30;12.70;;;11.87;;
16994;SDS011;8614;48.522;9.206;2022-10-17T01:52:01;11.63;;;10.73;;
16994;SDS011;8614;48.522;9.206;2022-10-17T01:54:32;14.00;;;12.80;;
16994;SDS011;8614;48.522;9.206;2022-10-17T01:57:08;13.00;;;12.03;;
16994;SDS011;8614;48.522;9.206;2022-10-17T01:59:40;12.67;;;11.77;;
16994;SDS011;8614;48.522;9.206;2022-10-17T02:02:10;12.57;;;11.60;;
16994;SDS011;8614;48.522;9.206;2022-10-17T02:04:41;12.43;;;11.57;;
16994;SDS011;8614;48.522;9.206;2022-10-17T02:07:09;12.80;;;11.90;;
16994;SDS011;8614;48.522;9.206;2022-10-17T02:09:37;9.53;;;8.57;;
16994;SDS011;8614;48.522;9.206;2022-10-17T02:12:10;8.73;;;8.03;;
16994;SDS011;8614;48.522;9.206;2022-10-17T02:14:55;9.40;;;8.70;;
16994;SDS011;8614;48.522;9.206;2022-10-17T02:17:36;9.60;;;8.90;;
16994;SDS011;8614;48.522;9.206;2022-10-17T02:20:14;9.83;;;9.10;;
16994;SDS011;8614;48.522;9.206;2022-10-17T02:22:50;9.83;;;9.13;;
16994;SDS011;8614;48.522;9.206;2022-10-17T02:25:22;9.50;;;8.80;;
16994;SDS011;8614;48.522;9.206;2022-10-17T02:27:58;10.70;;;9.77;;
16994;SDS011;8614;48.522;9.206;2022-10-17T02:30:31;12.33;;;9.30;;
16994;SDS011;8614;48.522;9.206;2022-10-17T02:33:05;9.33;;;8.67;;
16994;SDS011;8614;48.522;9.206;2022-10-17T02:35:37;10.57;;;9.67;;
16994;SDS011;8614;48.522;9.206;2022-10-17T02:38:08;9.73;;;8.97;;
16994;SDS011;8614;48.522;9.206;2022-10-17T02:40:37;10.53;;;9.83;;
16994;SDS011;8614;48.522;9.206;2022-10-17T02:43:06;9.73;;;9.03;;
16994;SDS011;8614;48.522;9.206;2022-10-17T02:45:34;9.60;;;8.60;;
16994;SDS011;8614;48.522;9.206;2022-10-17T02:48:04;9.53;;;8.73;;
16994;SDS011;8614;48.522;9.206;2022-10-17T02:50:37;8.63;;;8.03;;
16994;SDS011;8614;48.522;9.206;2022-10-17T02:53:11;9.03;;;8.27;;
16994;SDS011;8614;48.522;9.206;2022-10-17T02:55:42;9.07;;;8.27;;
16994;SDS011;8614;48.522;9.206;2022-10-17T02:58:17;8.13;;;7.53;;
16994;SDS011;8614;48.522;9.206;2022-10-17T03:00:46;8.90;;;8.20;;
16994;SDS011;8614;48.522;9.206;2022-10-17T03:03:19;10.13;;;8.30;;
16994;SDS011;8614;48.522;9.206;2022-10-17T03:05:47;10.13;;;9.30;;
16994;SDS011;8614;48.522;9.206;2022-10-17T03:08:15;10.00;;;9.30;;
16994;SDS011;8614;48.522;9.206;2022-10-17T03:10:41;11.27;;;10.47;;
16994;SDS011;8614;48.522;9.206;2022-10-17T03:13:08;10.47;;;9.67;;
16994;SDS011;8614;48.522;9.206;2022-10-17T03:15:38;9.80;;;9.00;;
16994;SDS011;8614;48.522;9.206;2022-10-17T03:18:05;11.17;;;10.20;;
16994;SDS011;8614;48.522;9.206;2022-10-17T03:20:34;10.30;;;9.50;;
16994;SDS011;8614;48.522;9.206;2022-10-17T03:23:01;11.80;;;10.90;;
16994;SDS011;8614;48.522;9.206;2022-10-17T03:25:28;10.40;;;9.47;;
16994;SDS011;8614;48.522;9.206;2022-10-17T03:27:56;13.47;;;12.37;;
16994;SDS011;8614;48.522;9.206;2022-10-17T03:30:24;13.97;;;12.97;;
16994;SDS011;8614;48.522;9.206;2022-10-17T03:32:52;13.67;;;12.57;;
16994;SDS011;8614;48.522;9.206;2022-10-17T03:35:19;13.60;;;12.70;;
16994;SDS011;8614;48.522;9.206;2022-10-17T03:37:50;8.80;;;6.33;;
16994;SDS011;8614;48.522;9.206;2022-10-17T03:40:19;12.80;;;6.53;;
16994;SDS011;8614;48.522;9.206;2022-10-17T03:42:47;6.93;;;6.33;;
16994;SDS011;8614;48.522;9.206;2022-10-17T03:45:14;8.07;;;7.47;;
16994;SDS011;8614;48.522;9.206;2022-10-17T03:47:41;7.50;;;6.80;;
16994;SDS011;8614;48.522;9.206;2022-10-17T03:50:08;7.10;;;6.50;;
16994;SDS011;8614;48.522;9.206;2022-10-17T03:52:37;7.27;;;6.67;;
16994;SDS011;8614;48.522;9.206;2022-10-17T03:55:05;8.10;;;7.30;;
16994;SDS011;8614;48.522;9.206;2022-10-17T03:57:33;8.93;;;6.67;;
16994;SDS011;8614;48.522;9.206;2022-10-17T04:00:03;8.73;;;6.57;;
16994;SDS011;8614;48.522;9.206;2022-10-17T04:02:39;7.50;;;6.80;;
16994;SDS011;8614;48.522;9.206;2022-10-17T04:05:09;8.50;;;7.07;;
16994;SDS011;8614;48.522;9.206;2022-10-17T04:07:36;11.73;;;10.83;;
16994;SDS011;8614;48.522;9.206;2022-10-17T04:10:04;14.67;;;13.53;;
16994;SDS011;8614;48.522;9.206;2022-10-17T04:12:33;14.67;;;13.70;;
16994;SDS011;8614;48.522;9.206;2022-10-17T04:14:59;15.40;;;14.30;;
16994;SDS011;8614;48.522;9.206;2022-10-17T04:17:28;8.40;;;7.60;;
16994;SDS011;8614;48.522;9.206;2022-10-17T04:19:56;8.63;;;7.83;;
16994;SDS011;8614;48.522;9.206;2022-10-17T04:22:23;8.97;;;7.30;;
16994;SDS011;8614;48.522;9.206;2022-10-17T04:24:50;8.90;;;7.20;;
16994;SDS011;8614;48.522;9.206;2022-10-17T04:27:33;12.93;;;11.77;;
16994;SDS011;8614;48.522;9.206;2022-10-17T04:30:00;11.43;;;10.53;;
16994;SDS011;8614;48.522;9.206;2022-10-17T04:32:30;14.23;;;13.10;;
16994;SDS011;8614;48.522;9.206;2022-10-17T04:35:06;8.57;;;7.67;;
16994;SDS011;8614;48.522;9.206;2022-10-17T04:37:34;8.47;;;7.67;;
16994;SDS011;8614;48.522;9.206;2022-10-17T04:40:07;8.60;;;7.80;;
16994;SDS011;8614;48.522;9.206;2022-10-17T04:42:36;8.23;;;7.30;;
16994;SDS011;8614;48.522;9.206;2022-10-17T04:45:04;7.40;;;6.80;;
16994;SDS011;8614;48.522;9.206;2022-10-17T04:47:31;8.10;;;7.33;;
16994;SDS011;8614;48.522;9.206;2022-10-17T04:49:58;7.90;;;7.20;;
16994;SDS011;8614;48.522;9.206;2022-10-17T04:52:25;10.77;;;10.03;;
16994;SDS011;8614;48.522;9.206;2022-10-17T04:54:52;12.37;;;11.47;;
16994;SDS011;8614;48.522;9.206;2022-10-17T04:57:19;11.63;;;10.73;;
16994;SDS011;8614;48.522;9.206;2022-10-17T05:00:07;10.90;;;10.00;;
16994;SDS011;8614;48.522;9.206;2022-10-17T05:02:50;12.13;;;10.80;;
16994;SDS011;8614;48.522;9.206;2022-10-17T05:05:18;10.70;;;9.67;;
16994;SDS011;8614;48.522;9.206;2022-10-17T05:07:48;11.60;;;10.80;;
16994;SDS011;8614;48.522;9.206;2022-10-17T05:10:17;12.10;;;11.10;;
16994;SDS011;8614;48.522;9.206;2022-10-17T05:12:47;12.30;;;11.40;;
16994;SDS011;8614;48.522;9.206;2022-10-17T05:15:18;12.10;;;11.23;;
16994;SDS011;8614;48.522;9.206;2022-10-17T05:17:44;12.13;;;11.03;;
16994;SDS011;8614;48.522;9.206;2022-10-17T05:20:12;12.30;;;8.60;;
16994;SDS011;8614;48.522;9.206;2022-10-17T05:22:39;12.13;;;11.13;;
16994;SDS011;8614;48.522;9.206;2022-10-17T05:25:07;12.67;;;11.47;;
16994;SDS011;8614;48.522;9.206;2022-10-17T05:27:34;12.17;;;10.97;;
16994;SDS011;8614;48.522;9.206;2022-10-17T05:30:02;8.47;;;7.43;;
16994;SDS011;8614;48.522;9.206;2022-10-17T05:32:34;7.47;;;6.70;;
16994;SDS011;8614;48.522;9.206;2022-10-17T05:35:01;7.43;;;6.73;;
16994;SDS011;8614;48.522;9.206;2022-10-17T05:37:30;8.50;;;7.63;;
16994;SDS011;8614;48.522;9.206;2022-10-17T05:39:59;8.83;;;7.97;;
16994;SDS011;8614;48.522;9.206;2022-10-17T05:42:28;8.57;;;6.57;;
16994;SDS011;8614;48.522;9.206;2022-10-17T05:44:55;7.73;;;7.03;;
16994;SDS011;8614;48.522;9.206;2022-10-17T05:47:24;8.10;;;7.30;;
16994;SDS011;8614;48.522;9.206;2022-10-17T05:49:52;8.07;;;7.40;;
16994;SDS011;8614;48.522;9.206;2022-10-17T05:52:25;8.33;;;7.43;;
16994;SDS011;8614;48.522;9.206;2022-10-17T05:55:01;7.70;;;7.00;;
16994;SDS011;8614;48.522;9.206;2022-10-17T05:57:28;9.80;;;7.70;;
16994;SDS011;8614;48.522;9.206;2022-10-17T05:59:56;7.83;;;6.70;;
16994;SDS011;8614;48.522;9.206;2022-10-17T06:02:23;7.97;;;7.27;;
16994;SDS011;8614;48.522;9.206;2022-10-17T06:04:50;11.87;;;10.67;;
16994;SDS011;8614;48.522;9.206;2022-10-17T06:07:20;8.83;;;7.33;;
16994;SDS011;8614;48.522;9.206;2022-10-17T06:09:47;10.20;;;9.23;;
16994;SDS011;8614;48.522;9.206;2022-10-17T06:12:14;11.23;;;9.97;;
16994;SDS011;8614;48.522;9.206;2022-10-17T06:14:42;8.83;;;6.93;;
16994;SDS011;8614;48.522;9.206;2022-10-17T06:17:11;7.63;;;6.93;;
16994;SDS011;8614;48.522;9.206;2022-10-17T06:19:38;7.30;;;6.60;;
16994;SDS011;8614;48.522;9.206;2022-10-17T06:22:05;9.90;;;9.10;;
16994;SDS011;8614;48.522;9.206;2022-10-17T06:24:34;9.97;;;9.07;;
16994;SDS011;8614;48.522;9.206;2022-10-17T06:27:03;9.30;;;8.60;;
16994;SDS011;8614;48.522;9.206;2022-10-17T06:29:30;10.47;;;9.47;;
16994;SDS011;8614;48.522;9.206;2022-10-17T06:31:57;9.50;;;8.70;;
16994;SDS011;8614;48.522;9.206;2022-10-17T06:34:24;6.43;;;5.83;;
16994;SDS011;8614;48.522;9.206;2022-10-17T06:36:52;8.20;;;7.40;;
16994;SDS011;8614;48.522;9.206;2022-10-17T06:39:19;10.07;;;9.17;;
16994;SDS011;8614;48.522;9.206;2022-10-17T06:41:56;13.37;;;12.47;;
16994;SDS011;8614;48.522;9.206;2022-10-17T06:44:37;12.97;;;12.07;;
16994;SDS011;8614;48.522;9.206;2022-10-17T06:47:25;10.83;;;9.87;;
16994;SDS011;8614;48.522;9.206;2022-10-17T06:49:56;9.40;;;8.60;;
16994;SDS011;8614;48.522;9.206;2022-10-17T06:52:29;13.10;;;12.10;;
16994;SDS011;8614;48.522;9.206;2022-10-17T06:55:16;6.03;;;4.50;;
16994;SDS011;8614;48.522;9.206;2022-10-17T06:57:55;4.93;;;4.43;;
16994;SDS011;8614;48.522;9.206;2022-10-17T07:00:40;5.50;;;5.00;;
16994;SDS011;8614;48.522;9.206;2022-10-17T07:03:09;8.20;;;7.60;;
16994;SDS011;8614;48.522;9.206;2022-10-17T07:05:36;6.97;;;6.47;;
16994;SDS011;8614;48.522;9.206;2022-10-17T07:08:03;11.37;;;10.67;;
16994;SDS011;8614;48.522;9.206;2022-10-17T07:10:31;5.40;;;4.20;;
16994;SDS011;8614;48.522;9.206;2022-10-17T07:13:03;10.27;;;9.63;;
16994;SDS011;8614;48.522;9.206;2022-10-17T07:15:32;9.53;;;8.87;;
16994;SDS011;8614;48.522;9.206;2022-10-17T07:17:59;7.90;;;7.40;;
16994;SDS011;8614;48.522;9.206;2022-10-17T07:20:26;12.07;;;11.27;;
16994;SDS011;8614;48.522;9.206;2022-10-17T07:22:54;11.27;;;10.40;;
16994;SDS011;8614;48.522;9.206;2022-10-17T07:25:22;12.00;;;11.30;;
16994;SDS011;8614;48.522;9.206;2022-10-17T07:27:54;4.90;;;4.17;;
16994;SDS011;8614;48.522;9.206;2022-10-17T07:30:23;12.40;;;11.40;;
16994;SDS011;8614;48.522;9.206;2022-10-17T07:32:55;7.93;;;7.30;;
16994;SDS011;8614;48.522;9.206;2022-10-17T07:35:22;12.60;;;11.40;;
16994;SDS011;8614;48.522;9.206;2022-10-17T07:37:50;8.97;;;8.33;;
16994;SDS011;8614;48.522;9.206;2022-10-17T07:40:19;5.37;;;4.90;;
16994;SDS011;8614;48.522;9.206;2022-10-17T07:42:46;11.60;;;10.80;;
16994;SDS011;8614;48.522;9.206;2022-10-17T07:45:15;11.43;;;10.63;;
16994;SDS011;8614;48.522;9.206;2022-10-17T07:47:46;11.97;;;11.17;;
16994;SDS011;8614;48.522;9.206;2022-10-17T07:50:14;12.33;;;11.10;;
16994;SDS011;8614;48.522;9.206;2022-10-17T07:52:41;9.37;;;8.57;;
16994;SDS011;8614;48.522;9.206;2022-10-17T07:55:08;4.60;;;4.20;;
16994;SDS011;8614;48.522;9.206;2022-10-17T07:57:35;11.27;;;10.10;;
16994;SDS011;8614;48.522;9.206;2022-10-17T08:00:04;10.90;;;10.00;;
16994;SDS011;8614;48.522;9.206;2022-10-17T08:02:37;7.17;;;3.73;;
16994;SDS011;8614;48.522;9.206;2022-10-17T08:05:06;5.13;;;3.70;;
16994;SDS011;8614;48.522;9.206;2022-10-17T08:07:33;10.63;;;9.87;;
16994;SDS011;8614;48.522;9.206;2022-10-17T08:10:00;6.80;;;3.70;;
16994;SDS011;8614;48.522;9.206;2022-10-17T08:12:27;3.83;;;3.50;;
16994;SDS011;8614;48.522;9.206;2022-10-17T08:14:56;6.93;;;4.60;;
16994;SDS011;8614;48.522;9.206;2022-10-17T08:17:23;11.20;;;10.33;;
16994;SDS011;8614;48.522;9.206;2022-10-17T08:19:50;11.43;;;10.63;;
16994;SDS011;8614;48.522;9.206;2022-10-17T08:22:19;10.67;;;9.87;;
16994;SDS011;8614;48.522;9.206;2022-10-17T08:24:48;10.67;;;9.97;;
16994;SDS011;8614;48.522;9.206;2022-10-17T08:27:14;10.50;;;9.70;;
16994;SDS011;8614;48.522;9.206;2022-10-17T08:29:47;10.40;;;9.70;;
16994;SDS011;8614;48.522;9.206;2022-10-17T08:32:17;12.67;;;11.53;;
16994;SDS011;8614;48.522;9.206;2022-10-17T08:34:44;10.00;;;8.97;;
16994;SDS011;8614;48.522;9.206;2022-10-17T08:37:11;6.03;;;5.33;;
16994;SDS011;8614;48.522;9.206;2022-10-17T08:39:40;4.30;;;3.90;;
16994;SDS011;8614;48.522;9.206;2022-10-17T08:42:17;11.37;;;10.43;;
16994;SDS011;8614;48.522;9.206;2022-10-17T08:45:00;9.73;;;8.83;;
16994;SDS011;8614;48.522;9.206;2022-10-17T08:47:39;4.00;;;3.40;;
16994;SDS011;8614;48.522;9.206;2022-10-17T08:50:10;8.07;;;7.47;;
16994;SDS011;8614;48.522;9.206;2022-10-17T08:52:41;9.23;;;8.50;;
16994;SDS011;8614;48.522;9.206;2022-10-17T08:55:15;11.13;;;10.33;;
16994;SDS011;8614;48.522;9.206;2022-10-17T08:57:46;11.03;;;10.20;;
16994;SDS011;8614;48.522;9.206;2022-10-17T09:00:14;4.90;;;3.23;;
16994;SDS011;8614;48.522;9.206;2022-10-17T09:02:47;10.37;;;9.73;;
16994;SDS011;8614;48.522;9.206;2022-10-17T09:05:30;3.63;;;3.33;;
16994;SDS011;8614;48.522;9.206;2022-10-17T09:08:05;4.67;;;3.87;;
16994;SDS011;8614;48.522;9.206;2022-10-17T09:10:44;4.03;;;3.70;;
16994;SDS011;8614;48.522;9.206;2022-10-17T09:13:20;6.50;;;6.00;;
16994;SDS011;8614;48.522;9.206;2022-10-17T09:16:04;9.90;;;9.00;;
16994;SDS011;8614;48.522;9.206;2022-10-17T09:18:40;5.83;;;5.37;;
16994;SDS011;8614;48.522;9.206;2022-10-17T09:21:15;3.93;;;3.20;;
16994;SDS011;8614;48.522;9.206;2022-10-17T09:23:48;3.80;;;3.10;;
16994;SDS011;8614;48.522;9.206;2022-10-17T09:26:19;3.63;;;3.17;;
16994;SDS011;8614;48.522;9.206;2022-10-17T09:28:50;5.37;;;4.87;;
16994;SDS011;8614;48.522;9.206;2022-10-17T09:31:21;8.80;;;7.40;;
16994;SDS011;8614;48.522;9.206;2022-10-17T09:33:51;5.30;;;4.80;;
16994;SDS011;8614;48.522;9.206;2022-10-17T09:36:22;5.77;;;5.37;;
16994;SDS011;8614;48.522;9.206;2022-10-17T09:38:53;4.40;;;4.03;;
16994;SDS011;8614;48.522;9.206;2022-10-17T09:41:32;4.13;;;3.80;;
16994;SDS011;8614;48.522;9.206;2022-10-17T09:44:07;4.33;;;3.77;;
16994;SDS011;8614;48.522;9.206;2022-10-17T09:46:40;6.47;;;5.97;;
16994;SDS011;8614;48.522;9.206;2022-10-17T09:49:13;8.97;;;8.37;;
16994;SDS011;8614;48.522;9.206;2022-10-17T09:51:44;5.03;;;4.63;;
16994;SDS011;8614;48.522;9.206;2022-10-17T09:54:15;6.57;;;4.47;;
16994;SDS011;8614;48.522;9.206;2022-10-17T09:56:57;5.73;;;5.20;;
16994;SDS011;8614;48.522;9.206;2022-10-17T09:59:29;7.17;;;6.57;;
16994;SDS011;8614;48.522;9.206;2022-10-17T10:02:11;6.30;;;5.80;;
16994;SDS011;8614;48.522;9.206;2022-10-17T10:04:56;9.47;;;8.00;;
16994;SDS011;8614;48.522;9.206;2022-10-17T10:07:24;8.20;;;7.70;;
16994;SDS011;8614;48.522;9.206;2022-10-17T10:09:53;8.00;;;7.40;;
16994;SDS011;8614;48.522;9.206;2022-10-17T10:12:23;7.23;;;6.70;;
16994;SDS011;8614;48.522;9.206;2022-10-17T10:14:51;8.60;;;7.83;;
16994;SDS011;8614;48.522;9.206;2022-10-17T10:17:35;6.40;;;6.00;;
16994;SDS011;8614;48.522;9.206;2022-10-17T10:23:12;3.37;;;3.07;;
16994;SDS011;8614;48.522;9.206;2022-10-17T10:25:54;5.13;;;3.10;;
16994;SDS011;8614;48.522;9.206;2022-10-17T10:28:27;5.77;;;5.27;;
16994;SDS011;8614;48.522;9.206;2022-10-17T10:30:57;8.83;;;8.20;;
16994;SDS011;8614;48.522;9.206;2022-10-17T10:33:26;7.60;;;7.10;;
16994;SDS011;8614;48.522;9.206;2022-10-17T10:35:55;9.27;;;8.60;;
16994;SDS011;8614;48.522;9.206;2022-10-17T10:38:25;9.60;;;8.90;;
16994;SDS011;8614;48.522;9.206;2022-10-17T10:40:53;9.10;;;8.50;;
16994;SDS011;8614;48.522;9.206;2022-10-17T10:43:23;7.97;;;7.47;;
16994;SDS011;8614;48.522;9.206;2022-10-17T10:46:01;10.30;;;9.60;;
16994;SDS011;8614;48.522;9.206;2022-10-17T10:48:31;9.53;;;8.83;;
16994;SDS011;8614;48.522;9.206;2022-10-17T10:51:00;9.63;;;9.03;;
16994;SDS011;8614;48.522;9.206;2022-10-17T10:53:32;10.00;;;9.10;;
16994;SDS011;8614;48.522;9.206;2022-10-17T10:56:07;9.90;;;9.10;;
16994;SDS011;8614;48.522;9.206;2022-10-17T10:58:42;9.80;;;9.00;;
16994;SDS011;8614;48.522;9.206;2022-10-17T11:01:19;9.77;;;9.07;;
16994;SDS011;8614;48.522;9.206;2022-10-17T11:03:58;9.70;;;9.10;;
16994;SDS011;8614;48.522;9.206;2022-10-17T11:06:39;9.63;;;9.03;;
16994;SDS011;8614;48.522;9.206;2022-10-17T11:09:11;9.57;;;8.97;;
16994;SDS011;8614;48.522;9.206;2022-10-17T11:11:43;9.27;;;8.67;;
16994;SDS011;8614;48.522;9.206;2022-10-17T11:14:16;8.80;;;8.30;;
16994;SDS011;8614;48.522;9.206;2022-10-17T11:16:48;9.30;;;8.80;;
16994;SDS011;8614;48.522;9.206;2022-10-17T11:19:23;9.13;;;8.53;;
16994;SDS011;8614;48.522;9.206;2022-10-17T11:21:57;9.00;;;8.50;;
16994;SDS011;8614;48.522;9.206;2022-10-17T11:24:31;8.63;;;8.13;;
16994;SDS011;8614;48.522;9.206;2022-10-17T11:27:03;6.80;;;6.30;;
16994;SDS011;8614;48.522;9.206;2022-10-17T11:29:33;3.10;;;2.90;;
16994;SDS011;8614;48.522;9.206;2022-10-17T11:32:04;3.53;;;3.23;;
16994;SDS011;8614;48.522;9.206;2022-10-17T11:34:35;3.63;;;3.33;;
16994;SDS011;8614;48.522;9.206;2022-10-17T11:37:08;3.20;;;3.00;;
16994;SDS011;8614;48.522;9.206;2022-10-17T11:39:41;3.47;;;3.13;;
16994;SDS011;8614;48.522;9.206;2022-10-17T11:42:14;3.40;;;3.10;;
16994;SDS011;8614;48.522;9.206;2022-10-17T11:44:47;5.77;;;5.37;;
16994;SDS011;8614;48.522;9.206;2022-10-17T11:47:28;6.23;;;5.77;;
16994;SDS011;8614;48.522;9.206;2022-10-17T11:50:02;3.40;;;3.10;;
16994;SDS011;8614;48.522;9.206;2022-10-17T11:52:37;3.63;;;3.37;;
16994;SDS011;8614;48.522;9.206;2022-10-17T11:55:10;7.47;;;6.97;;
16994;SDS011;8614;48.522;9.206;2022-10-17T11:57:44;7.73;;;7.30;;
16994;SDS011;8614;48.522;9.206;2022-10-17T12:00:21;3.17;;;2.97;;
16994;SDS011;8614;48.522;9.206;2022-10-17T12:02:56;3.60;;;3.30;;
16994;SDS011;8614;48.522;9.206;2022-10-17T12:05:33;7.87;;;7.37;;
16994;SDS011;8614;48.522;9.206;2022-10-17T12:08:08;8.40;;;7.90;;
16994;SDS011;8614;48.522;9.206;2022-10-17T12:10:42;6.23;;;5.70;;
16994;SDS011;8614;48.522;9.206;2022-10-17T12:19:19;7.40;;;6.73;;
16994;SDS011;8614;48.522;9.206;2022-10-17T12:21:56;5.43;;;5.03;;
16994;SDS011;8614;48.522;9.206;2022-10-17T12:24:28;6.03;;;5.47;;
16994;SDS011;8614;48.522;9.206;2022-10-17T12:27:21;8.40;;;7.80;;
16994;SDS011;8614;48.522;9.206;2022-10-17T12:29:57;5.80;;;5.20;;
16994;SDS011;8614;48.522;9.206;2022-10-17T12:32:26;5.30;;;4.90;;
16994;SDS011;8614;48.522;9.206;2022-10-17T12:34:53;7.53;;;7.03;;
16994;SDS011;8614;48.522;9.206;2022-10-17T12:40:50;7.23;;;6.10;;
16994;SDS011;8614;48.522;9.206;2022-10-17T12:49:23;4.50;;;2.83;;
16994;SDS011;8614;48.522;9.206;2022-10-17T12:52:14;2.73;;;2.50;;
16994;SDS011;8614;48.522;9.206;2022-10-17T12:54:44;2.50;;;2.40;;
16994;SDS011;8614;48.522;9.206;2022-10-17T12:57:14;4.30;;;2.60;;
16994;SDS011;8614;48.522;9.206;2022-10-17T12:59:46;2.90;;;2.60;;
16994;SDS011;8614;48.522;9.206;2022-10-17T13:02:15;6.07;;;5.57;;
16994;SDS011;8614;48.522;9.206;2022-10-17T13:04:47;4.53;;;3.10;;
16994;SDS011;8614;48.522;9.206;2022-10-17T13:07:16;3.63;;;3.33;;
16994;SDS011;8614;48.522;9.206;2022-10-17T13:09:45;4.27;;;3.87;;
16994;SDS011;8614;48.522;9.206;2022-10-17T13:12:16;3.60;;;2.50;;
16994;SDS011;8614;48.522;9.206;2022-10-17T13:14:46;2.70;;;2.50;;
16994;SDS011;8614;48.522;9.206;2022-10-17T13:17:21;2.70;;;2.37;;
16994;SDS011;8614;48.522;9.206;2022-10-17T13:19:51;2.87;;;2.60;;
16994;SDS011;8614;48.522;9.206;2022-10-17T13:22:19;3.90;;;2.50;;
16994;SDS011;8614;48.522;9.206;2022-10-17T13:24:48;2.37;;;2.20;;
16994;SDS011;8614;48.522;9.206;2022-10-17T13:27:23;3.03;;;2.30;;
16994;SDS011;8614;48.522;9.206;2022-10-17T13:29:52;2.60;;;2.40;;
16994;SDS011;8614;48.522;9.206;2022-10-17T13:32:21;7.00;;;6.47;;
16994;SDS011;8614;48.522;9.206;2022-10-17T13:35:06;2.33;;;2.20;;
16994;SDS011;8614;48.522;9.206;2022-10-17T13:37:35;5.33;;;5.03;;
16994;SDS011;8614;48.522;9.206;2022-10-17T13:40:04;2.37;;;2.20;;
16994;SDS011;8614;48.522;9.206;2022-10-17T13:42:35;9.37;;;8.67;;
16994;SDS011;8614;48.522;9.206;2022-10-17T13:45:09;3.57;;;3.37;;
16994;SDS011;8614;48.522;9.206;2022-10-17T13:47:43;4.10;;;3.77;;
16994;SDS011;8614;48.522;9.206;2022-10-17T13:53:05;5.97;;;4.43;;
16994;SDS011;8614;48.522;9.206;2022-10-17T13:55:35;6.13;;;5.77;;
16994;SDS011;8614;48.522;9.206;2022-10-17T13:58:09;6.10;;;5.60;;
16994;SDS011;8614;48.522;9.206;2022-10-17T14:00:40;8.23;;;7.73;;
16994;SDS011;8614;48.522;9.206;2022-10-17T14:03:07;6.77;;;6.23;;
16994;SDS011;8614;48.522;9.206;2022-10-17T14:05:35;6.97;;;6.37;;
16994;SDS011;8614;48.522;9.206;2022-10-17T14:08:34;5.27;;;4.93;;
16994;SDS011;8614;48.522;9.206;2022-10-17T14:11:07;5.07;;;4.77;;
16994;SDS011;8614;48.522;9.206;2022-10-17T14:13:40;5.33;;;4.90;;
16994;SDS011;8614;48.522;9.206;2022-10-17T14:16:08;5.90;;;5.50;;
16994;SDS011;8614;48.522;9.206;2022-10-17T14:18:35;4.77;;;4.27;;
16994;SDS011;8614;48.522;9.206;2022-10-17T14:21:06;3.53;;;3.30;;
16994;SDS011;8614;48.522;9.206;2022-10-17T14:23:34;2.80;;;2.60;;
16994;SDS011;8614;48.522;9.206;2022-10-17T14:26:04;2.50;;;2.30;;
16994;SDS011;8614;48.522;9.206;2022-10-17T14:28:33;2.80;;;2.60;;
16994;SDS011;8614;48.522;9.206;2022-10-17T14:31:18;2.97;;;2.77;;
16994;SDS011;8614;48.522;9.206;2022-10-17T14:33:49;2.97;;;2.67;;
16994;SDS011;8614;48.522;9.206;2022-10-17T14:36:19;5.43;;;5.03;;
16994;SDS011;8614;48.522;9.206;2022-10-17T14:38:55;4.20;;;3.90;;
16994;SDS011;8614;48.522;9.206;2022-10-17T14:41:22;6.97;;;6.57;;
16994;SDS011;8614;48.522;9.206;2022-10-17T14:43:52;4.53;;;4.23;;
16994;SDS011;8614;48.522;9.206;2022-10-17T14:46:20;3.20;;;3.00;;
16994;SDS011;8614;48.522;9.206;2022-10-17T14:48:50;8.93;;;8.43;;
16994;SDS011;8614;48.522;9.206;2022-10-17T14:51:20;8.77;;;8.20;;
16994;SDS011;8614;48.522;9.206;2022-10-17T14:53:58;8.30;;;7.80;;
16994;SDS011;8614;48.522;9.206;2022-10-17T14:56:34;9.73;;;9.13;;
16994;SDS011;8614;48.522;9.206;2022-10-17T14:59:05;3.77;;;3.47;;
16994;SDS011;8614;48.522;9.206;2022-10-17T15:01:34;4.80;;;4.47;;
16994;SDS011;8614;48.522;9.206;2022-10-17T15:04:01;7.50;;;7.00;;
16994;SDS011;8614;48.522;9.206;2022-10-17T15:06:31;9.00;;;8.50;;
16994;SDS011;8614;48.522;9.206;2022-10-17T15:08:58;7.47;;;7.03;;
16994;SDS011;8614;48.522;9.206;2022-10-17T15:11:26;6.97;;;6.47;;
16994;SDS011;8614;48.522;9.206;2022-10-17T15:13:53;4.93;;;4.63;;
16994;SDS011;8614;48.522;9.206;2022-10-17T15:16:20;7.07;;;6.67;;
16994;SDS011;8614;48.522;9.206;2022-10-17T15:18:49;4.70;;;4.40;;
16994;SDS011;8614;48.522;9.206;2022-10-17T15:21:17;4.03;;;3.73;;
16994;SDS011;8614;48.522;9.206;2022-10-17T15:23:47;8.20;;;7.70;;
16994;SDS011;8614;48.522;9.206;2022-10-17T15:26:14;10.07;;;9.47;;
16994;SDS011;8614;48.522;9.206;2022-10-17T15:28:44;8.33;;;7.93;;
16994;SDS011;8614;48.522;9.206;2022-10-17T15:31:14;5.33;;;5.03;;
16994;SDS011;8614;48.522;9.206;2022-10-17T15:33:42;8.70;;;8.20;;
16994;SDS011;8614;48.522;9.206;2022-10-17T15:36:17;8.50;;;8.00;;
16994;SDS011;8614;48.522;9.206;2022-10-17T15:38:47;8.00;;;7.60;;
16994;SDS011;8614;48.522;9.206;2022-10-17T15:41:14;8.00;;;7.50;;
16994;SDS011;8614;48.522;9.206;2022-10-17T15:43:41;8.40;;;7.90;;
16994;SDS011;8614;48.522;9.206;2022-10-17T15:46:11;7.53;;;7.13;;